Seguin, TX

9:39 PM CST on February 10, 2016 (GMT -0600)
College Heights (South) | | Change Station
CLOSE
Current Station
Personal Weather Station
Location: Seguin, TX
Elevation: 551 ft
Nearby Weather Stations

Elev 551 ft 29.57 °N, 97.96 °W | Updated 11 minutes ago

Clear
Clear
57.9 °F
Feels Like 57.9 °F
N
0.0
Wind Variable Wind from SSW

Today
High -- | Low -- °F
--% Chance of Precip.
Yesterday
High -- | Low -- °F
Precip. -- in
Pressure 30.19 in
Visibility 10.0 miles
Clouds Clear
Dew Point 34 °F
Humidity 40%
Rainfall 0.00 in
Snow Depth Not available.
7:15 AM 6:16 PM
Waxing Crescent, 9% visible
METAR KBAZ 110251Z AUTO 23005KT 10SM CLR 13/M01 A3020 RMK AO2 SLP223 T01281006 56003
Pressure 30.19 in
Visibility 10.0 miles
Clouds Clear
Dew Point 34 °F
Humidity 40%
Rainfall 0.00 in
Snow Depth Not available.
7:15 AM 6:16 PM
Waxing Crescent, 9% visible
METAR KBAZ 110251Z AUTO 23005KT 10SM CLR 13/M01 A3020 RMK AO2 SLP223 T01281006 56003

10-Day Weather Forecast

Almanac

Astronomy

Feb. 10, 2016 Rise Set
Actual Time
Civil Twilight
Nautical Twilight
Astronomical Twilight
Moon
Length of Visible Light
Length of Day
Tomorrow will be .
, % of the Moon is Illuminated

Today's Extremes

State Highs State Lows

Community

WunderPhotos

Upload Photos

1,891,994 photos uploaded!

WunderBlog® & News

Nearby

Air Quality

  Air Quality AQ Index Pollutant
Not available.

Snow Depth

Station Depth Elevation

Earthquake Activity

City Distance Mag. Time & Date
Minimum magnitude displayed is 2.5.

Coastal Water Temperatures

Place Temperature

Stations

Nearby Weather Stations

Station Location Temp. Windchill Dew Point Humidity Wind Precip. Elev Updated Type
                   

Watches & Warnings

There are currently no watches in effect.